Portada
METAR-TAF:

METAR-TAF

Aeropuertos :

Bagdad, Iraq

Aeropuerto Internacional de Bagdad

latitud: 33-15-45N, longitud: 44-14-04E, altitud: 35 m

Observación

El informe se hizo hace 23 minutos, a las 22:00 UTC
Viento 2 kt del oeste
Temperatura 7°C
Humedad 70%
Presión 1021 hPa
Visibilidad: 4200 m
Polvo extendido

METAR: ORBI 212200Z 28002KT 4200 DU NSC 07/02 Q1021 NOSIG

Hora: 01:23 (22:23 UTC)

Pronóstico

El informe se hizo hace 5 horas y 23 minutos, a las 17:00 UTC
Pronóstico válido del 21 a las 18 UTC al 22 a las 18 UTC
Viento 5 kt del oeste-noroeste
Visibilidad: 4000 m
Polvo extendido
Evolucionando progresivamente
del 22 a las 04 UTC al 22 a las 06 UTC
Viento 8 kt del sur-sureste
Visibilidad: 6000 m
Nubes dispersas a una altura de 4000 ft

TAF: ORBI 211700Z 2118/2218 30005KT 4000 DU NSC BECMG 2204/2206 16008KT 6000 SCT040

Observaciones y pronósticos meteorológicos de más de 4000 aeropuertos (mensajes METAR y TAF).

Los puntos amarillos y rojos representan las estaciones disponibles.

Ponga el ratón en el punto deseado para ver el nombre de la estación.

Haga clic para ver las observaciones y los pronósticos meteorológicos.

Para cambiar el mapa : haga clic en los botones verdes con una cruz de color negro para hacer un zoom, en el botón verde con un guión para alejar o en las flechas verdes para mapas adyacentes.


METAR-TAF: